Terminal Aerodrome Forecast
Issued by NWS

Home | Current Version | Previous Version | Text Only | Print | Product List | Glossary On
Versions: 1 2 3 4 5 6 7 8 9 10 11 12 13
007
FTUS43 KEAX 062320
TAFSTJ
TAF
KSTJ 062320Z 0700/0724 21009KT P6SM SCT150
     FM070600 23011KT P6SM SCT120 WS020/25040KT
     FM071500 30018G28KT P6SM BKN120=

USA.gov is the U.S. government's official web portal to all federal, state and local government web resources and services.